createdAt,value
2017-05-27T00:01:13.210Z,21.70
2017-05-27T00:03:40.495Z,21.60
2017-05-27T00:06:07.841Z,21.60
2017-05-27T00:08:35.130Z,21.60
2017-05-27T00:11:02.421Z,21.60
2017-05-27T00:13:29.757Z,21.50
2017-05-27T00:15:57.158Z,21.50
2017-05-27T00:18:24.498Z,21.50
2017-05-27T00:20:51.845Z,21.40
2017-05-27T00:23:19.205Z,21.50
2017-05-27T00:25:46.562Z,21.50
2017-05-27T00:28:13.887Z,21.50
2017-05-27T00:30:41.165Z,21.40
2017-05-27T00:33:08.531Z,21.40
2017-05-27T00:35:35.881Z,21.40
2017-05-27T00:38:03.237Z,21.30
2017-05-27T00:40:30.596Z,21.30
2017-05-27T00:42:57.926Z,21.30
2017-05-27T00:45:25.212Z,21.30
2017-05-27T00:47:52.096Z,21.30
2017-05-27T00:50:19.510Z,21.20
2017-05-27T00:52:46.450Z,21.20
2017-05-27T00:55:13.733Z,21.20
2017-05-27T00:57:41.163Z,21.10
2017-05-27T01:00:08.446Z,21.10
2017-05-27T01:02:35.339Z,21.10
2017-05-27T01:05:02.722Z,21.10
2017-05-27T01:07:30.011Z,21.00
2017-05-27T01:09:56.922Z,21.00
2017-05-27T01:12:24.290Z,21.00
2017-05-27T01:14:51.638Z,21.00
2017-05-27T01:17:18.975Z,21.00
2017-05-27T01:19:45.929Z,21.00
2017-05-27T01:22:12.881Z,20.90
2017-05-27T01:24:40.166Z,20.90
2017-05-27T01:27:07.518Z,20.90
2017-05-27T01:29:34.437Z,20.90
2017-05-27T01:32:01.714Z,20.90
2017-05-27T01:34:29.150Z,20.80
2017-05-27T01:36:56.449Z,20.90
2017-05-27T01:39:23.338Z,20.90
2017-05-27T01:41:50.660Z,20.80
2017-05-27T01:44:17.955Z,20.90
2017-05-27T01:46:45.243Z,20.90
2017-05-27T01:49:12.578Z,20.90
2017-05-27T01:51:39.514Z,20.90
2017-05-27T01:54:06.870Z,21.00
2017-05-27T01:56:33.801Z,21.00
2017-05-27T01:59:01.172Z,21.00
2017-05-27T02:01:28.541Z,20.90
2017-05-27T02:03:55.887Z,20.90
2017-05-27T02:06:23.170Z,20.90
2017-05-27T02:08:50.455Z,20.80
2017-05-27T02:11:17.437Z,20.90
2017-05-27T02:13:44.382Z,20.80
2017-05-27T02:16:11.738Z,20.80
2017-05-27T02:18:39.022Z,20.80
2017-05-27T02:21:05.942Z,20.80
2017-05-27T02:23:32.890Z,20.80
2017-05-27T02:26:00.169Z,20.70
2017-05-27T02:28:27.502Z,20.70
2017-05-27T02:30:54.875Z,20.70
2017-05-27T02:33:22.158Z,20.70
2017-05-27T02:35:49.462Z,20.70
2017-05-27T02:38:16.917Z,20.70
2017-05-27T02:40:44.270Z,20.70
2017-05-27T02:43:11.160Z,20.70
2017-05-27T02:45:38.577Z,20.60
2017-05-27T02:48:05.527Z,20.60
2017-05-27T02:50:32.474Z,20.60
2017-05-27T02:52:59.833Z,20.50
2017-05-27T02:55:27.192Z,20.60
2017-05-27T02:57:54.131Z,20.60
2017-05-27T03:00:21.501Z,20.50
2017-05-27T03:02:48.838Z,20.50
2017-05-27T03:05:16.199Z,20.50
2017-05-27T03:07:43.557Z,20.40
2017-05-27T03:10:10.906Z,20.30
2017-05-27T03:12:38.270Z,20.30
2017-05-27T03:15:05.599Z,20.40
2017-05-27T03:17:32.570Z,20.40
2017-05-27T03:19:59.861Z,20.30
2017-05-27T03:22:27.189Z,20.30
2017-05-27T03:24:54.467Z,20.30
2017-05-27T03:27:21.759Z,20.30
2017-05-27T03:29:49.137Z,20.30
2017-05-27T03:32:16.427Z,20.20
2017-05-27T03:34:43.708Z,20.10
2017-05-27T03:37:10.693Z,20.10
2017-05-27T03:39:37.976Z,20.10
2017-05-27T03:42:05.265Z,20.00
2017-05-27T03:44:32.257Z,20.00
2017-05-27T03:46:59.618Z,19.70
2017-05-27T03:49:26.974Z,19.70
2017-05-27T03:51:54.330Z,19.60
2017-05-27T03:54:21.642Z,19.50
2017-05-27T03:56:48.939Z,19.50
2017-05-27T03:59:16.299Z,19.50
2017-05-27T04:01:43.591Z,19.50
2017-05-27T04:04:10.874Z,19.40
2017-05-27T04:06:38.240Z,19.40
2017-05-27T04:09:05.202Z,19.40
2017-05-27T04:11:32.560Z,19.50
2017-05-27T04:13:59.905Z,19.60
2017-05-27T04:16:27.210Z,19.60
2017-05-27T04:18:54.494Z,19.70
2017-05-27T04:21:21.421Z,19.70
2017-05-27T04:23:48.709Z,19.80
2017-05-27T04:26:15.997Z,19.80
2017-05-27T04:28:43.319Z,19.80
2017-05-27T04:31:10.205Z,19.80
2017-05-27T04:33:37.528Z,19.80
2017-05-27T04:36:04.891Z,19.80
2017-05-27T04:38:31.833Z,19.80
2017-05-27T04:40:59.186Z,19.90
2017-05-27T04:43:26.549Z,19.90
2017-05-27T04:45:53.901Z,19.80
2017-05-27T04:48:21.271Z,19.90
2017-05-27T04:50:48.617Z,20.00
2017-05-27T04:53:15.562Z,20.00
2017-05-27T04:55:42.918Z,20.20
2017-05-27T04:58:10.439Z,20.30
2017-05-27T05:00:37.735Z,20.40
2017-05-27T05:03:05.058Z,20.50
2017-05-27T05:05:32.414Z,20.50
2017-05-27T05:07:59.706Z,20.60
2017-05-27T05:10:27.030Z,20.70
2017-05-27T05:12:54.371Z,20.70
2017-05-27T05:15:21.725Z,20.70
2017-05-27T05:17:49.082Z,20.90
2017-05-27T05:20:16.372Z,21.00
2017-05-27T05:22:43.794Z,21.00
2017-05-27T05:25:11.129Z,21.00
2017-05-27T05:27:38.406Z,21.10
2017-05-27T05:30:05.733Z,21.20
2017-05-27T05:32:33.022Z,21.30
2017-05-27T05:35:00.370Z,21.40
2017-05-27T05:37:27.702Z,21.50
2017-05-27T05:39:54.991Z,21.40
2017-05-27T05:42:22.270Z,21.40
2017-05-27T05:44:49.606Z,21.40
2017-05-27T05:47:16.945Z,21.50
2017-05-27T05:49:44.303Z,21.50
2017-05-27T05:52:11.345Z,21.50
2017-05-27T05:54:38.701Z,21.60
2017-05-27T05:57:06.062Z,21.60
2017-05-27T05:59:33.410Z,21.50
2017-05-27T06:02:00.769Z,21.60
2017-05-27T06:04:28.054Z,21.60
2017-05-27T06:06:55.383Z,21.60
2017-05-27T06:09:22.330Z,21.60
2017-05-27T06:11:49.685Z,21.50
2017-05-27T06:14:17.038Z,21.50
2017-05-27T06:16:44.401Z,21.60
2017-05-27T06:19:11.762Z,21.60
2017-05-27T06:21:39.054Z,21.60
2017-05-27T06:24:06.337Z,21.70
2017-05-27T06:26:33.714Z,21.70
2017-05-27T06:29:01.003Z,21.80
2017-05-27T06:31:28.285Z,21.80
2017-05-27T06:33:55.666Z,21.90
2017-05-27T06:36:23.079Z,22.00
2017-05-27T06:38:50.397Z,22.10
2017-05-27T06:41:17.734Z,22.20
2017-05-27T06:43:45.102Z,22.20
2017-05-27T06:46:12.461Z,22.20
2017-05-27T06:48:39.794Z,22.30
2017-05-27T06:51:07.174Z,22.20
2017-05-27T06:53:34.534Z,22.20
2017-05-27T06:56:01.457Z,22.30
2017-05-27T06:58:28.747Z,22.30
2017-05-27T07:00:56.035Z,22.30
2017-05-27T07:03:22.963Z,22.30
2017-05-27T07:05:50.253Z,22.60
2017-05-27T07:08:17.650Z,22.80
2017-05-27T07:10:45.099Z,22.90
2017-05-27T07:13:12.458Z,23.00
2017-05-27T07:15:39.820Z,23.10
2017-05-27T07:18:07.169Z,23.10
2017-05-27T07:20:34.562Z,23.30
2017-05-27T07:23:01.842Z,23.40
2017-05-27T07:25:29.136Z,23.50
2017-05-27T07:27:56.465Z,23.60
2017-05-27T07:30:23.847Z,23.60
2017-05-27T07:32:51.211Z,23.70
2017-05-27T07:35:18.546Z,23.60
2017-05-27T07:37:45.924Z,23.70
2017-05-27T07:40:13.233Z,23.80
2017-05-27T07:42:40.626Z,23.90
2017-05-27T07:45:07.994Z,24.00
2017-05-27T07:47:35.341Z,24.20
2017-05-27T07:50:02.694Z,24.30
2017-05-27T07:52:29.974Z,24.20
2017-05-27T07:54:57.411Z,24.30
2017-05-27T07:57:24.699Z,24.40
2017-05-27T07:59:52.017Z,24.60
2017-05-27T08:02:19.347Z,24.60
2017-05-27T08:04:46.725Z,24.70
2017-05-27T08:07:13.618Z,24.70
2017-05-27T08:09:40.961Z,24.80
2017-05-27T08:12:08.385Z,25.00
2017-05-27T08:14:35.670Z,25.00
2017-05-27T08:17:02.994Z,25.10
2017-05-27T08:19:29.952Z,25.10
2017-05-27T08:21:57.299Z,25.20
2017-05-27T08:24:24.658Z,25.20
2017-05-27T08:26:52.014Z,25.40
2017-05-27T08:29:19.371Z,25.40
2017-05-27T08:31:46.697Z,25.50
2017-05-27T08:34:14.079Z,25.60
2017-05-27T08:36:41.022Z,25.60
2017-05-27T08:39:08.381Z,25.70
2017-05-27T08:41:35.738Z,25.80
2017-05-27T08:44:02.625Z,25.80
2017-05-27T08:46:30.070Z,25.90
2017-05-27T08:48:56.954Z,25.90
2017-05-27T08:51:24.238Z,26.00
2017-05-27T08:53:51.595Z,26.20
2017-05-27T08:56:18.491Z,26.20
2017-05-27T08:58:45.838Z,26.30
2017-05-27T09:01:13.270Z,26.30
2017-05-27T09:03:40.163Z,26.30
2017-05-27T09:06:07.461Z,26.30
2017-05-27T09:08:34.418Z,26.30
2017-05-27T09:11:01.759Z,26.50
2017-05-27T09:13:29.136Z,26.60
2017-05-27T09:15:56.162Z,26.60
2017-05-27T09:18:23.458Z,26.60
2017-05-27T09:20:50.738Z,26.70
2017-05-27T09:23:17.821Z,26.70
2017-05-27T09:25:45.194Z,26.70
2017-05-27T09:28:12.574Z,26.70
2017-05-27T09:30:39.990Z,26.70
2017-05-27T09:33:07.346Z,26.70
2017-05-27T09:35:34.635Z,26.70
2017-05-27T09:38:01.967Z,26.80
2017-05-27T09:40:28.845Z,26.80
2017-05-27T09:42:56.154Z,27.00
2017-05-27T09:45:23.522Z,26.90
2017-05-27T09:47:50.817Z,26.90
2017-05-27T09:50:18.129Z,26.80
2017-05-27T09:52:45.455Z,26.90
2017-05-27T09:55:12.373Z,26.90
2017-05-27T09:57:39.278Z,27.00
2017-05-27T10:00:06.738Z,27.20
2017-05-27T10:02:34.085Z,27.20
2017-05-27T10:05:01.378Z,27.20
2017-05-27T10:07:28.742Z,27.20
2017-05-27T10:09:56.021Z,27.30
2017-05-27T10:12:23.317Z,27.40
2017-05-27T10:14:50.646Z,27.60
2017-05-27T10:17:17.926Z,27.70
2017-05-27T10:19:45.266Z,27.80
2017-05-27T10:22:12.597Z,27.80
2017-05-27T10:24:39.881Z,27.90
2017-05-27T10:27:06.826Z,27.90
2017-05-27T10:29:33.873Z,27.90
2017-05-27T10:32:00.766Z,27.90
2017-05-27T10:34:28.070Z,27.90
2017-05-27T10:36:55.434Z,27.80
2017-05-27T10:39:22.781Z,27.80
2017-05-27T10:41:50.068Z,27.90
2017-05-27T10:44:17.394Z,28.00
2017-05-27T10:46:44.754Z,28.00
2017-05-27T10:49:12.049Z,28.10
2017-05-27T10:51:39.373Z,28.00
2017-05-27T10:54:06.257Z,28.00
2017-05-27T10:56:33.549Z,28.20
2017-05-27T10:59:00.953Z,28.10
2017-05-27T11:01:28.270Z,28.10
2017-05-27T11:03:55.634Z,28.20
2017-05-27T11:06:22.566Z,28.20
2017-05-27T11:08:49.862Z,28.30
2017-05-27T11:11:17.154Z,28.50
2017-05-27T11:13:44.136Z,28.50
2017-05-27T11:16:11.485Z,28.60
2017-05-27T11:18:38.777Z,28.80
2017-05-27T11:21:06.198Z,28.60
2017-05-27T11:23:33.478Z,28.60
2017-05-27T11:26:00.370Z,28.60
2017-05-27T11:28:27.756Z,28.80
2017-05-27T11:30:55.148Z,29.00
2017-05-27T11:33:22.035Z,29.00
2017-05-27T11:35:49.370Z,29.00
2017-05-27T11:38:16.659Z,29.00
2017-05-27T11:40:44.021Z,29.10
2017-05-27T11:43:10.962Z,29.10
2017-05-27T11:45:38.326Z,29.30
2017-05-27T11:48:05.614Z,29.40
2017-05-27T11:50:32.582Z,29.40
2017-05-27T11:52:59.865Z,29.40
2017-05-27T11:55:27.147Z,29.50
2017-05-27T11:57:54.590Z,29.60
2017-05-27T12:00:21.986Z,29.60
2017-05-27T12:02:49.297Z,29.50
2017-05-27T12:05:16.628Z,29.50
2017-05-27T12:07:43.910Z,29.50
2017-05-27T12:10:11.318Z,29.60
2017-05-27T12:12:38.273Z,29.60
2017-05-27T12:15:05.587Z,29.70
2017-05-27T12:17:32.910Z,29.80
2017-05-27T12:20:00.276Z,29.80
2017-05-27T12:22:27.562Z,29.80
2017-05-27T12:24:54.846Z,29.80
2017-05-27T12:27:22.241Z,29.80
2017-05-27T12:29:49.130Z,29.80
2017-05-27T12:32:16.415Z,29.90
2017-05-27T12:34:43.797Z,30.00
2017-05-27T12:37:11.082Z,30.00
2017-05-27T12:39:38.374Z,30.10
2017-05-27T12:42:05.705Z,30.20
2017-05-27T12:44:33.000Z,30.20
2017-05-27T12:47:00.374Z,30.10
2017-05-27T12:49:27.741Z,30.10
2017-05-27T12:51:55.100Z,30.10
2017-05-27T12:54:22.386Z,30.00
2017-05-27T12:56:49.693Z,30.10
2017-05-27T12:59:17.014Z,30.10
2017-05-27T13:01:44.299Z,30.10
2017-05-27T13:04:11.617Z,30.20
2017-05-27T13:06:38.510Z,30.20
2017-05-27T13:09:05.862Z,30.20
2017-05-27T13:11:33.257Z,30.20
2017-05-27T13:14:00.142Z,30.20
2017-05-27T13:16:27.422Z,30.00
2017-05-27T13:18:54.878Z,30.00
2017-05-27T13:21:22.171Z,30.00
2017-05-27T13:23:49.453Z,30.10
2017-05-27T13:26:16.842Z,30.40
2017-05-27T13:28:44.130Z,30.50
2017-05-27T13:31:11.454Z,30.60
2017-05-27T13:33:38.402Z,30.60
2017-05-27T13:36:05.935Z,30.70
2017-05-27T13:38:33.318Z,30.70
2017-05-27T13:41:00.689Z,30.70
2017-05-27T13:43:28.003Z,30.70
2017-05-27T13:45:55.388Z,30.70
2017-05-27T13:48:22.345Z,30.70
2017-05-27T13:50:49.682Z,30.80
2017-05-27T13:53:16.637Z,30.80
2017-05-27T13:55:43.679Z,30.90
2017-05-27T13:58:10.978Z,31.20
2017-05-27T14:00:38.265Z,31.20
2017-05-27T14:03:05.598Z,31.10
2017-05-27T14:05:32.885Z,31.00
2017-05-27T14:08:00.266Z,31.10
2017-05-27T14:10:27.587Z,31.10
2017-05-27T14:12:54.965Z,31.20
2017-05-27T14:15:22.340Z,31.10
2017-05-27T14:17:49.646Z,31.30
2017-05-27T14:20:17.030Z,31.40
2017-05-27T14:22:44.634Z,31.50
2017-05-27T14:25:11.949Z,31.60
2017-05-27T14:27:39.237Z,31.70
2017-05-27T14:30:06.675Z,31.90
2017-05-27T14:32:34.017Z,32.00
2017-05-27T14:35:01.318Z,32.20
2017-05-27T14:37:28.777Z,32.10
2017-05-27T14:39:56.091Z,32.00
2017-05-27T14:42:23.375Z,31.90
2017-05-27T14:44:50.709Z,31.90
2017-05-27T14:47:17.999Z,31.90
2017-05-27T14:49:45.315Z,32.00
2017-05-27T14:52:12.670Z,32.20
2017-05-27T14:54:39.963Z,32.30
2017-05-27T14:57:07.283Z,32.50
2017-05-27T14:59:34.633Z,32.60
2017-05-27T15:02:01.934Z,32.60
2017-05-27T15:04:29.322Z,32.70
2017-05-27T15:06:56.675Z,32.80
2017-05-27T15:09:24.279Z,32.70
2017-05-27T15:11:51.571Z,32.70
2017-05-27T15:14:18.942Z,32.80
2017-05-27T15:16:46.242Z,32.90
2017-05-27T15:19:13.537Z,32.90
2017-05-27T15:21:40.886Z,32.90
2017-05-27T15:24:08.171Z,33.00
2017-05-27T15:26:35.449Z,33.10
2017-05-27T15:29:02.478Z,33.10
2017-05-27T15:31:29.769Z,33.20
2017-05-27T15:33:57.188Z,33.30
2017-05-27T15:36:24.556Z,33.30
2017-05-27T15:38:51.899Z,33.30
2017-05-27T15:41:19.218Z,33.30
2017-05-27T15:43:46.503Z,33.40
2017-05-27T15:46:13.554Z,33.40
2017-05-27T15:48:40.845Z,33.60
2017-05-27T15:51:08.134Z,33.60
2017-05-27T15:53:35.467Z,33.70
2017-05-27T15:56:02.751Z,33.80
2017-05-27T15:58:30.131Z,33.80
2017-05-27T16:00:57.458Z,33.70
2017-05-27T16:03:24.864Z,33.80
2017-05-27T16:05:52.147Z,33.90
2017-05-27T16:08:19.472Z,34.00
2017-05-27T16:10:46.754Z,34.00
2017-05-27T16:13:14.061Z,34.10
2017-05-27T16:15:41.420Z,34.30
2017-05-27T16:18:08.783Z,34.40
2017-05-27T16:20:36.070Z,34.70
2017-05-27T16:23:03.425Z,35.20
2017-05-27T16:25:30.744Z,35.70
2017-05-27T16:27:58.090Z,36.20
2017-05-27T16:30:25.430Z,37.10
2017-05-27T16:32:52.331Z,37.10
2017-05-27T16:35:19.235Z,38.00
2017-05-27T16:37:46.594Z,39.70
2017-05-27T16:40:13.950Z,40.20
2017-05-27T16:42:41.321Z,40.80
2017-05-27T16:45:08.656Z,41.30
2017-05-27T16:47:36.029Z,41.30
2017-05-27T16:50:03.401Z,41.00
2017-05-27T16:52:30.418Z,41.00
2017-05-27T16:54:57.782Z,41.70
2017-05-27T16:57:25.142Z,42.20
2017-05-27T16:59:52.083Z,42.20
2017-05-27T17:02:19.477Z,42.40
2017-05-27T17:04:46.794Z,42.40
2017-05-27T17:07:13.747Z,42.40
2017-05-27T17:09:41.099Z,41.50
2017-05-27T17:12:08.387Z,41.50
2017-05-27T17:14:35.318Z,41.50
2017-05-27T17:17:02.342Z,41.50
2017-05-27T17:19:29.701Z,42.20
2017-05-27T17:21:57.054Z,42.50
2017-05-27T17:24:24.418Z,42.50
2017-05-27T17:26:51.710Z,42.60
2017-05-27T17:29:19.026Z,42.80
2017-05-27T17:31:45.966Z,42.80
2017-05-27T17:34:13.250Z,42.60
2017-05-27T17:36:40.178Z,42.60
2017-05-27T17:39:07.534Z,42.80
2017-05-27T17:41:34.819Z,42.40
2017-05-27T17:44:02.230Z,42.20
2017-05-27T17:46:29.522Z,42.00
2017-05-27T17:48:56.814Z,41.90
2017-05-27T17:51:24.210Z,41.80
2017-05-27T17:53:51.561Z,41.80
2017-05-27T17:56:18.915Z,41.60
2017-05-27T17:58:46.274Z,41.00
2017-05-27T18:01:13.214Z,41.00
2017-05-27T18:03:40.518Z,39.00
2017-05-27T18:06:07.927Z,37.90
2017-05-27T18:08:35.290Z,37.00
2017-05-27T18:11:02.681Z,36.50
2017-05-27T18:13:30.097Z,35.80
2017-05-27T18:15:57.463Z,35.20
2017-05-27T18:18:24.756Z,34.70
2017-05-27T18:20:52.135Z,34.30
2017-05-27T18:23:19.437Z,33.70
2017-05-27T18:25:46.778Z,33.10
2017-05-27T18:28:14.134Z,32.70
2017-05-27T18:30:41.418Z,32.40
2017-05-27T18:33:08.754Z,32.10
2017-05-27T18:35:35.694Z,32.10
2017-05-27T18:38:02.984Z,31.50
2017-05-27T18:40:29.875Z,31.50
2017-05-27T18:42:57.199Z,31.00
2017-05-27T18:45:24.498Z,30.90
2017-05-27T18:47:51.403Z,30.90
2017-05-27T18:50:18.747Z,30.60
2017-05-27T18:52:46.060Z,30.50
2017-05-27T18:55:13.417Z,30.40
2017-05-27T18:57:40.769Z,30.40
2017-05-27T19:00:08.126Z,30.30
2017-05-27T19:02:35.065Z,30.30
2017-05-27T19:05:02.402Z,30.00
2017-05-27T19:07:29.689Z,30.00
2017-05-27T19:09:57.042Z,29.80
2017-05-27T19:12:24.358Z,29.70
2017-05-27T19:14:51.750Z,29.60
2017-05-27T19:17:19.171Z,29.50
2017-05-27T19:19:46.533Z,29.40
2017-05-27T19:22:13.881Z,29.30
2017-05-27T19:24:41.241Z,29.20
2017-05-27T19:27:08.608Z,29.10
2017-05-27T19:29:35.965Z,29.00
2017-05-27T19:32:03.311Z,28.90
2017-05-27T19:34:30.615Z,28.80
2017-05-27T19:36:57.894Z,28.80
2017-05-27T19:39:25.269Z,28.70
2017-05-27T19:41:52.665Z,28.60
2017-05-27T19:44:19.948Z,28.50
2017-05-27T19:46:47.337Z,28.30
2017-05-27T19:49:14.630Z,28.10
2017-05-27T19:51:42.054Z,27.90
2017-05-27T19:54:09.406Z,27.90
2017-05-27T19:56:36.698Z,27.70
2017-05-27T19:59:04.114Z,27.60
2017-05-27T20:01:31.398Z,27.50
2017-05-27T20:03:58.302Z,27.50
2017-05-27T20:06:25.636Z,27.30
2017-05-27T20:08:52.930Z,27.30
2017-05-27T20:11:20.220Z,27.20
2017-05-27T20:13:47.225Z,27.20
2017-05-27T20:16:14.519Z,27.10
2017-05-27T20:18:41.807Z,27.10
2017-05-27T20:21:09.194Z,27.10
2017-05-27T20:23:36.554Z,27.20
2017-05-27T20:26:03.839Z,27.20
2017-05-27T20:28:31.181Z,27.10
2017-05-27T20:30:58.473Z,27.00
2017-05-27T20:33:25.778Z,27.00
2017-05-27T20:35:53.129Z,26.90
2017-05-27T20:38:20.483Z,26.80
2017-05-27T20:40:47.847Z,26.60
2017-05-27T20:43:15.186Z,26.60
2017-05-27T20:45:42.469Z,26.50
2017-05-27T20:48:09.795Z,26.40
2017-05-27T20:50:37.147Z,26.30
2017-05-27T20:53:04.440Z,26.40
2017-05-27T20:55:31.764Z,26.30
2017-05-27T20:57:59.045Z,26.30
2017-05-27T21:00:26.389Z,26.20
2017-05-27T21:02:53.826Z,26.10
2017-05-27T21:05:21.181Z,26.00
2017-05-27T21:07:48.475Z,25.90
2017-05-27T21:10:15.799Z,25.80
2017-05-27T21:12:43.150Z,25.70
2017-05-27T21:15:10.433Z,25.70
2017-05-27T21:17:37.853Z,25.50
2017-05-27T21:20:04.747Z,25.50
2017-05-27T21:22:32.033Z,25.40
2017-05-27T21:24:59.411Z,25.40
2017-05-27T21:27:26.703Z,25.20
2017-05-27T21:29:54.023Z,25.10
2017-05-27T21:32:21.351Z,25.10
2017-05-27T21:34:48.633Z,24.90
2017-05-27T21:37:16.026Z,24.90
2017-05-27T21:39:42.969Z,24.90
2017-05-27T21:42:09.924Z,24.90
2017-05-27T21:44:37.208Z,24.90
2017-05-27T21:47:04.635Z,24.80
2017-05-27T21:49:32.004Z,24.80
2017-05-27T21:51:59.342Z,24.60
2017-05-27T21:54:26.710Z,24.60
2017-05-27T21:56:54.033Z,24.50
2017-05-27T21:59:21.410Z,24.30
2017-05-27T22:01:48.698Z,24.20
2017-05-27T22:04:15.722Z,24.20
2017-05-27T22:06:43.009Z,24.10
2017-05-27T22:09:10.295Z,24.10
2017-05-27T22:11:37.682Z,24.00
2017-05-27T22:14:04.574Z,24.00
2017-05-27T22:16:31.453Z,23.90
2017-05-27T22:18:58.797Z,23.70
2017-05-27T22:21:25.685Z,23.70
2017-05-27T22:23:52.577Z,23.70
2017-05-27T22:26:19.984Z,23.80
2017-05-27T22:28:47.334Z,23.70
2017-05-27T22:31:14.629Z,23.70
2017-05-27T22:33:41.560Z,23.70
2017-05-27T22:36:08.881Z,23.70
2017-05-27T22:38:36.245Z,23.70
2017-05-27T22:41:03.594Z,23.80
2017-05-27T22:43:30.946Z,23.80
2017-05-27T22:45:58.310Z,23.60
2017-05-27T22:48:25.662Z,23.60
2017-05-27T22:50:53.023Z,23.50
2017-05-27T22:53:20.416Z,23.40
2017-05-27T22:55:47.726Z,23.40
2017-05-27T22:58:15.061Z,23.40
2017-05-27T23:00:42.438Z,23.40
2017-05-27T23:03:09.388Z,23.40
2017-05-27T23:05:36.342Z,23.30
2017-05-27T23:08:03.629Z,23.10
2017-05-27T23:10:30.919Z,23.00
2017-05-27T23:12:58.303Z,22.90
2017-05-27T23:15:25.615Z,22.90
2017-05-27T23:17:52.894Z,23.00
2017-05-27T23:20:20.243Z,23.10
2017-05-27T23:22:47.624Z,23.10
2017-05-27T23:25:14.914Z,22.90
2017-05-27T23:27:42.256Z,22.90
2017-05-27T23:30:09.192Z,22.90
2017-05-27T23:32:36.539Z,22.70
2017-05-27T23:35:03.895Z,22.70
2017-05-27T23:37:31.265Z,22.60
2017-05-27T23:39:58.546Z,22.60
2017-05-27T23:42:25.959Z,22.50
2017-05-27T23:44:53.246Z,22.40
2017-05-27T23:47:20.614Z,22.40
2017-05-27T23:49:47.933Z,22.40
2017-05-27T23:52:15.230Z,22.40
2017-05-27T23:54:42.534Z,22.40
2017-05-27T23:57:09.906Z,22.50
2017-05-27T23:59:36.795Z,22.50
